Rijeka, Croatia
Current Conditions -  °F | °C
As of 5:00 PM on Saturday 20 Dec 2014 (Local Time) from LDRI Reporting Station
Scattered Clouds Scattered Clouds  
Wind Chill: 54°   Ceiling: Unl
Heat Index: 54°   Visibility: 6mi
Dew Point: 43°   Wind: 6mph
Humidity: 67%   Direction: 110°ESE
Pressure: 30.15"   Gusts: NA
Location:  45.33°N, 14.44°E
Report Text: LDRI 201500Z 11005KT 9999 SCT033 12/06 Q1021
Loading
Personal Weather Stations






























Interactive Weather Map New forecast layout! Learn more

10-Day Weather Forecast

Advertisements
Track Severe Weather on mobile